Time;durP1;ratioP1;P1;durP2;ratioP2;P2;SDS_P1;SDS_P2;PMS_P1;PMS_P2;Temp;Humidity;BMP_temperature;BMP_pressure;BME280_temperature;BME280_humidity;BME280_pressure;Samples;Min_cycle;Max_cycle;Signal;HPM_P1;HPM_P2
2021/09/02 00:00:43;;;;;;;;;;;;;;;16.88;73.80;102783.41;5031027;28;19929;-46
2021/09/02 00:03:10;;;;;;;;;;;;;;;16.85;73.87;102791.56;5031103;28;19925;-49
2021/09/02 00:05:37;;;;;;;;;;;;;;;16.85;75.06;102787.13;5031470;28;19987;-50
2021/09/02 00:08:04;;;;;;;;;;;;;;;16.77;75.40;102788.50;5032652;28;19926;-48
2021/09/02 00:10:31;;;;;;;;;;;;;;;16.77;75.64;102780.53;5032230;28;19925;-50
2021/09/02 00:12:57;;;;;;;;;;;;;;;16.77;76.31;102785.84;5031259;28;19925;-44
2021/09/02 00:15:24;;;;;;;;;;;;;;;16.69;75.37;102776.56;5032115;28;20685;-48
2021/09/02 00:17:50;;;;;;;;;;;;;;;16.66;76.09;102775.88;5033296;28;19925;-53
2021/09/02 00:20:17;;;;;;;;;;;;;;;16.63;76.03;102776.06;5031844;28;20616;-55
2021/09/02 00:22:44;;;;;;;;;;;;;;;16.56;75.99;102775.59;5030964;28;20011;-53
2021/09/02 00:25:10;;;;;;;;;;;;;;;16.64;75.74;102781.28;5032574;28;20004;-55
2021/09/02 00:27:37;;;;;;;;;;;;;;;16.71;75.58;102776.47;5029180;28;19929;-55
2021/09/02 00:30:04;;;;;;;;;;;;;;;16.62;76.28;102777.88;5032104;28;20411;-53
2021/09/02 00:32:31;;;;;;;;;;;;;;;16.56;76.36;102775.59;5032190;28;20323;-54
2021/09/02 00:34:58;;;;;;;;;;;;;;;16.54;76.57;102774.84;5032171;28;19932;-53
2021/09/02 00:37:25;;;;;;;;;;;;;;;16.48;76.71;102772.53;5030260;28;20355;-55
2021/09/02 00:39:51;;;;;;;;;;;;;;;16.50;76.99;102768.84;5032353;28;19925;-53
2021/09/02 00:42:18;;;;;;;;;;;;;;;16.49;77.13;102763.63;5029403;28;19929;-56
2021/09/02 00:44:45;;;;;;;;;;;;;;;16.43;77.60;102771.94;5030646;28;19925;-53
2021/09/02 00:47:12;;;;;;;;;;;;;;;16.55;77.22;102773.88;5031299;28;19932;-53
2021/09/02 00:49:39;;;;;;;;;;;;;;;16.56;77.20;102771.16;5030446;28;19936;-53
2021/09/02 00:52:16;;;;;;;;;;;;;;;16.50;77.40;102771.50;5031908;28;19932;-54
2021/09/02 00:54:45;;;;;;;;;;;;;;;16.42;77.73;102768.47;5031900;28;19925;-54
2021/09/02 00:57:12;;;;;;;;;;;;;;;16.38;77.46;102769.59;5028788;28;19932;-53
2021/09/02 00:59:39;;;;;;;;;;;;;;;16.38;77.44;102767.78;5031486;28;19925;-54
2021/09/02 01:02:06;;;;;;;;;;;;;;;16.43;77.35;102767.50;5031415;28;19964;-55
2021/09/02 01:04:33;;;;;;;;;;;;;;;16.41;77.58;102772.06;5030182;28;20828;-51
2021/09/02 01:06:59;;;;;;;;;;;;;;;16.39;77.31;102772.16;5031795;28;19926;-53
2021/09/02 01:09:26;;;;;;;;;;;;;;;16.33;77.69;102761.91;5013654;28;19933;-54
2021/09/02 01:11:56;;;;;;;;;;;;;;;16.29;78.18;102767.47;5029980;28;19950;-54
2021/09/02 01:14:23;;;;;;;;;;;;;;;16.29;77.99;102765.69;5030367;28;19975;-54
2021/09/02 01:16:50;;;;;;;;;;;;;;;16.28;78.53;102771.06;5031785;28;20009;-49
2021/09/02 01:19:20;;;;;;;;;;;;;;;16.27;78.52;102766.72;5029760;28;19936;-52
2021/09/02 01:21:47;;;;;;;;;;;;;;;16.33;78.90;102769.00;5030892;28;19925;-54
2021/09/02 01:24:14;;;;;;;;;;;;;;;16.28;78.95;102755.13;5030363;28;19951;-52
2021/09/02 01:26:41;;;;;;;;;;;;;;;16.27;78.96;102764.06;5028459;28;19925;-54
2021/09/02 01:29:11;;;;;;;;;;;;;;;16.26;79.58;102755.22;5031048;28;19941;-54
2021/09/02 01:31:38;;;;;;;;;;;;;;;16.25;79.75;102764.13;5031292;28;19936;-53
2021/09/02 01:34:05;;;;;;;;;;;;;;;16.18;80.29;102754.81;5029351;28;19925;-54
2021/09/02 01:36:32;;;;;;;;;;;;;;;16.30;79.85;102758.56;5030846;28;20315;-54
2021/09/02 01:38:58;;;;;;;;;;;;;;;16.26;80.10;102754.38;5031100;28;19979;-56
2021/09/02 01:41:25;;;;;;;;;;;;;;;16.24;80.58;102765.09;5029777;28;20677;-54
2021/09/02 01:43:52;;;;;;;;;;;;;;;16.17;80.69;102759.28;5029340;28;19936;-53
2021/09/02 01:46:19;;;;;;;;;;;;;;;16.14;80.99;102755.94;5030900;28;19925;-56
2021/09/02 01:48:45;;;;;;;;;;;;;;;16.15;80.88;102750.56;5029609;28;19926;-54
2021/09/02 01:51:12;;;;;;;;;;;;;;;16.13;80.92;102743.63;5030422;28;19991;-55
2021/09/02 01:53:39;;;;;;;;;;;;;;;16.08;81.46;102757.16;5029330;28;20307;-54
2021/09/02 01:56:05;;;;;;;;;;;;;;;16.13;81.44;102757.75;5012747;28;20305;-53
2021/09/02 01:58:32;;;;;;;;;;;;;;;16.15;80.88;102749.72;5027674;28;19956;-55
2021/09/02 02:00:59;;;;;;;;;;;;;;;16.12;81.40;102753.38;5030200;28;20392;-55
2021/09/02 02:03:26;;;;;;;;;;;;;;;16.07;81.12;102752.78;5030515;28;20439;-54
2021/09/02 02:05:52;;;;;;;;;;;;;;;16.02;81.30;102754.84;5030327;28;20430;-54
2021/09/02 02:08:19;;;;;;;;;;;;;;;16.01;82.10;102756.66;5029249;28;20343;-55
2021/09/02 02:10:46;;;;;;;;;;;;;;;16.04;82.16;102747.69;5030927;28;19929;-53
2021/09/02 02:13:12;;;;;;;;;;;;;;;16.07;81.71;102751.97;5028366;28;20370;-54
2021/09/02 02:15:39;;;;;;;;;;;;;;;16.01;82.13;102751.38;5030768;28;19959;-49
2021/09/02 02:18:06;;;;;;;;;;;;;;;16.03;81.82;102749.50;5030711;28;19925;-46
2021/09/02 02:20:32;;;;;;;;;;;;;;;16.03;82.19;102743.31;5028583;28;19926;-48
2021/09/02 02:22:59;;;;;;;;;;;;;;;15.92;82.67;102738.63;5028870;28;19929;-45
2021/09/02 02:25:26;;;;;;;;;;;;;;;15.92;82.92;102735.97;5030107;28;19932;-49
2021/09/02 02:27:53;;;;;;;;;;;;;;;15.87;82.88;102738.91;5028685;28;20384;-47
2021/09/02 02:30:20;;;;;;;;;;;;;;;15.94;82.84;102743.84;5028613;28;19925;-46
2021/09/02 02:32:47;;;;;;;;;;;;;;;15.97;83.19;102749.84;5028950;28;20396;-51
2021/09/02 02:35:14;;;;;;;;;;;;;;;15.94;82.99;102747.38;5029022;28;20339;-50
2021/09/02 02:37:41;;;;;;;;;;;;;;;15.92;83.52;102746.59;5028593;28;19981;-46
2021/09/02 02:40:09;;;;;;;;;;;;;;;15.90;83.44;102751.13;5030378;28;19933;-49
2021/09/02 02:42:36;;;;;;;;;;;;;;;15.89;83.66;102750.25;5026366;28;19936;-49
2021/09/02 02:45:02;;;;;;;;;;;;;;;15.86;83.55;102749.59;5029001;28;19948;-46
2021/09/02 02:47:30;;;;;;;;;;;;;;;15.86;84.21;102744.31;5029963;28;19933;-44
2021/09/02 02:49:57;;;;;;;;;;;;;;;15.74;85.04;102744.97;5028927;28;19932;-47
2021/09/02 02:52:23;;;;;;;;;;;;;;;15.80;84.85;102741.97;5029350;28;20467;-50
2021/09/02 02:54:50;;;;;;;;;;;;;;;15.70;85.21;102747.78;5029536;28;19932;-48
2021/09/02 02:57:17;;;;;;;;;;;;;;;15.72;85.39;102747.72;5027145;28;19976;-45
2021/09/02 02:59:43;;;;;;;;;;;;;;;15.66;85.70;102748.06;5029897;28;19972;-45
2021/09/02 03:02:10;;;;;;;;;;;;;;;15.65;85.95;102741.91;5029332;28;19929;-46
2021/09/02 03:04:37;;;;;;;;;;;;;;;15.71;85.32;102746.84;5028138;28;19929;-47
2021/09/02 03:07:04;;;;;;;;;;;;;;;15.72;85.10;102745.06;5029871;28;19975;-46
2021/09/02 03:09:30;;;;;;;;;;;;;;;15.69;85.56;102740.78;5030787;28;19929;-47
2021/09/02 03:11:57;;;;;;;;;;;;;;;15.67;86.32;102744.47;5032316;28;19929;-44
2021/09/02 03:14:24;;;;;;;;;;;;;;;15.59;86.26;102736.94;5032020;28;19925;-46
2021/09/02 03:16:50;;;;;;;;;;;;;;;15.66;85.82;102740.09;5033710;28;19937;-48
2021/09/02 03:19:17;;;;;;;;;;;;;;;15.71;85.76;102740.69;5033554;28;20379;-47
2021/09/02 03:21:44;;;;;;;;;;;;;;;15.75;86.16;102741.34;5033513;28;19925;-55
2021/09/02 03:24:10;;;;;;;;;;;;;;;15.74;86.02;102744.97;5031393;28;19937;-54
2021/09/02 03:26:37;;;;;;;;;;;;;;;15.76;85.73;102740.41;5031574;28;21011;-54
2021/09/02 03:29:03;;;;;;;;;;;;;;;15.73;85.92;102749.41;5033238;28;20292;-53
2021/09/02 03:31:30;;;;;;;;;;;;;;;15.73;85.74;102746.75;5033059;28;19925;-54
2021/09/02 03:33:57;;;;;;;;;;;;;;;15.72;85.63;102748.56;5033162;28;19932;-54
2021/09/02 03:36:23;;;;;;;;;;;;;;;15.78;85.36;102754.47;5015632;28;19925;-52
2021/09/02 03:38:55;;;;;;;;;;;;;;;15.71;85.58;102753.97;5033101;28;19932;-54
2021/09/02 03:41:21;;;;;;;;;;;;;;;15.68;85.61;102747.03;5032575;28;19933;-54
2021/09/02 03:43:48;;;;;;;;;;;;;;;15.60;85.76;102743.97;5030574;28;19929;-55
2021/09/02 03:46:15;;;;;;;;;;;;;;;15.61;85.79;102747.44;5032957;28;20011;-53
2021/09/02 03:48:41;;;;;;;;;;;;;;;15.71;85.23;102744.19;5033082;28;20372;-54
2021/09/02 03:51:08;;;;;;;;;;;;;;;15.68;85.38;102741.72;5033061;28;20439;-53
2021/09/02 03:53:35;;;;;;;;;;;;;;;15.63;85.56;102735.81;5031159;28;19979;-54
2021/09/02 03:56:01;;;;;;;;;;;;;;;15.59;85.72;102736.94;5032797;28;19940;-54
2021/09/02 03:58:28;;;;;;;;;;;;;;;15.62;85.63;102735.91;5031303;28;19937;-54
2021/09/02 04:00:54;;;;;;;;;;;;;;;15.66;85.29;102735.63;5032420;28;20008;-48
2021/09/02 04:03:21;;;;;;;;;;;;;;;15.65;84.40;102741.03;5032684;28;19929;-50
2021/09/02 04:05:48;;;;;;;;;;;;;;;15.67;84.45;102750.63;5032482;28;19929;-50
2021/09/02 04:08:15;;;;;;;;;;;;;;;15.66;84.46;102743.59;5032595;28;19925;-46
2021/09/02 04:10:42;;;;;;;;;;;;;;;15.69;84.12;102746.09;5033157;28;19936;-47
2021/09/02 04:13:09;;;;;;;;;;;;;;;15.66;84.01;102742.75;5029446;28;19925;-49
2021/09/02 04:15:35;;;;;;;;;;;;;;;15.65;83.96;102741.91;5032129;28;19925;-55
2021/09/02 04:18:02;;;;;;;;;;;;;;;15.66;83.78;102743.59;5032861;28;19925;-47
2021/09/02 04:20:29;;;;;;;;;;;;;;;15.58;83.57;102737.88;5030670;28;19929;-53
2021/09/02 04:22:55;;;;;;;;;;;;;;;15.60;84.05;102736.00;5030494;28;20009;-54
2021/09/02 04:25:22;;;;;;;;;;;;;;;15.60;83.72;102736.00;5032519;28;19964;-55
2021/09/02 04:27:49;;;;;;;;;;;;;;;15.54;84.02;102733.69;5030792;28;20645;-54
2021/09/02 04:30:15;;;;;;;;;;;;;;;15.54;83.65;102731.03;5030526;28;19924;-54
2021/09/02 04:32:43;;;;;;;;;;;;;;;15.50;83.76;102738.31;5031419;28;20400;-53
2021/09/02 04:35:10;;;;;;;;;;;;;;;15.52;83.78;102743.53;5030654;28;19933;-55
2021/09/02 04:37:40;;;;;;;;;;;;;;;15.51;84.01;102740.00;5031957;28;19925;-52
2021/09/02 04:40:08;;;;;;;;;;;;;;;15.52;84.20;102743.53;5032032;28;20040;-54
2021/09/02 04:42:34;;;;;;;;;;;;;;;15.55;83.25;102740.69;5030109;28;19988;-54
2021/09/02 04:45:02;;;;;;;;;;;;;;;15.59;83.73;102742.22;5030829;28;19949;-55
2021/09/02 04:47:29;;;;;;;;;;;;;;;15.52;83.49;102743.53;5032244;28;20753;-53
2021/09/02 04:49:55;;;;;;;;;;;;;;;15.42;83.56;102745.84;5031703;28;19971;-54
2021/09/02 04:52:22;;;;;;;;;;;;;;;15.34;83.87;102748.91;5031277;28;19925;-54
2021/09/02 04:54:49;;;;;;;;;;;;;;;15.40;83.75;102746.88;5030855;28;20323;-55
2021/09/02 04:57:21;;;;;;;;;;;;;;;15.36;83.99;102748.81;5029798;28;19976;-53
2021/09/02 04:59:48;;;;;;;;;;;;;;;15.34;84.37;102753.38;5031545;28;20020;-55
2021/09/02 05:02:15;;;;;;;;;;;;;;;15.34;84.28;102748.91;5031431;28;19951;-53
2021/09/02 05:04:43;;;;;;;;;;;;;;;15.31;84.35;102749.09;5030278;28;19932;-54
2021/09/02 05:07:09;;;;;;;;;;;;;;;15.32;84.37;102760.53;5029806;28;19932;-54
2021/09/02 05:09:36;;;;;;;;;;;;;;;15.26;85.02;102753.78;5031568;28;19925;-54
2021/09/02 05:12:13;;;;;;;;;;;;;;;15.24;85.07;102760.09;5029196;28;19979;-55
2021/09/02 05:14:40;;;;;;;;;;;;;;;15.26;84.77;102755.59;5031196;28;19929;-53
2021/09/02 05:17:08;;;;;;;;;;;;;;;15.23;84.92;102755.75;5031654;28;19936;-55
2021/09/02 05:19:35;;;;;;;;;;;;;;;15.27;84.89;102754.63;5031207;28;19964;-53
2021/09/02 05:22:02;;;;;;;;;;;;;;;15.26;84.96;102758.25;5029816;28;19931;-44
2021/09/02 05:24:28;;;;;;;;;;;;;;;15.20;84.97;102756.75;5030935;28;19933;-45
2021/09/02 05:26:55;;;;;;;;;;;;;;;15.15;85.57;102759.66;5030497;28;19937;-46
2021/09/02 05:29:22;;;;;;;;;;;;;;;15.20;85.15;102754.97;5030753;28;19940;-45
2021/09/02 05:31:48;;;;;;;;;;;;;;;15.27;85.23;102757.28;5030885;28;19995;-45
2021/09/02 05:34:15;;;;;;;;;;;;;;;15.30;85.12;102752.69;5030790;28;19931;-44
2021/09/02 05:36:41;;;;;;;;;;;;;;;15.31;85.00;102751.75;5031132;28;20423;-47
2021/09/02 05:39:08;;;;;;;;;;;;;;;15.33;85.21;102746.34;5030873;28;19925;-48
2021/09/02 05:41:35;;;;;;;;;;;;;;;15.31;85.13;102743.78;5029941;28;19933;-47
2021/09/02 05:44:01;;;;;;;;;;;;;;;15.23;85.13;102751.31;5030137;28;19929;-46
2021/09/02 05:46:28;;;;;;;;;;;;;;;15.23;85.32;102746.00;5030808;28;19929;-48
2021/09/02 05:48:55;;;;;;;;;;;;;;;15.25;85.14;102743.28;5031071;28;20400;-50
2021/09/02 05:51:21;;;;;;;;;;;;;;;15.24;85.03;102753.00;5030491;28;19937;-46
2021/09/02 05:53:48;;;;;;;;;;;;;;;15.26;85.25;102740.53;5029095;28;19933;-47
2021/09/02 05:56:15;;;;;;;;;;;;;;;15.35;84.44;102753.28;5030506;28;19936;-45
2021/09/02 05:58:41;;;;;;;;;;;;;;;15.43;84.40;102741.38;5029324;28;20384;-45
2021/09/02 06:01:12;;;;;;;;;;;;;;;15.41;84.84;102752.09;5030106;28;19975;-48
2021/09/02 06:03:39;;;;;;;;;;;;;;;15.46;84.44;102744.75;5030384;28;19925;-46
2021/09/02 06:06:05;;;;;;;;;;;;;;;15.48;84.25;102749.94;5030615;28;19929;-47
2021/09/02 06:08:33;;;;;;;;;;;;;;;15.58;83.75;102751.13;5029541;28;19925;-47
2021/09/02 06:11:02;;;;;;;;;;;;;;;15.60;83.58;102749.25;5030472;28;20392;-47
2021/09/02 06:13:29;;;;;;;;;;;;;;;15.58;83.24;102751.13;5027474;28;19929;-50
2021/09/02 06:15:56;;;;;;;;;;;;;;;15.59;83.45;102752.84;5029952;28;20316;-49
2021/09/02 06:18:23;;;;;;;;;;;;;;;15.65;83.36;102757.81;5030426;28;19948;-49
2021/09/02 06:20:49;;;;;;;;;;;;;;;15.66;82.49;102756.84;5028442;28;19933;-48
2021/09/02 06:23:16;;;;;;;;;;;;;;;15.72;81.36;102753.88;5028112;28;19925;-48
2021/09/02 06:25:43;;;;;;;;;;;;;;;15.73;81.16;102746.75;5030596;28;20458;-47
2021/09/02 06:28:10;;;;;;;;;;;;;;;15.83;80.72;102747.13;5027457;28;20374;-46
2021/09/02 06:30:37;;;;;;;;;;;;;;;15.82;80.22;102754.22;5032020;28;19925;-45
2021/09/02 06:33:04;;;;;;;;;;;;;;;15.90;80.37;102756.44;5013152;28;20813;-45
2021/09/02 06:35:30;;;;;;;;;;;;;;;15.92;80.83;102756.34;5028451;28;19925;-46
2021/09/02 06:37:57;;;;;;;;;;;;;;;16.01;80.48;102754.00;5030089;28;19939;-45
2021/09/02 06:40:24;;;;;;;;;;;;;;;16.15;79.79;102765.63;5029065;28;20343;-49
2021/09/02 06:42:51;;;;;;;;;;;;;;;16.17;79.43;102761.94;5026414;28;19929;-44
2021/09/02 06:45:17;;;;;;;;;;;;;;;16.26;78.98;102760.53;5029610;28;19929;-45
2021/09/02 06:47:44;;;;;;;;;;;;;;;16.24;78.43;102757.13;5030366;28;20439;-47
2021/09/02 06:50:12;;;;;;;;;;;;;;;16.26;78.47;102757.03;5029681;28;19991;-45
2021/09/02 06:52:42;;;;;;;;;;;;;;;16.31;78.41;102755.81;5029659;28;20350;-44
2021/09/02 06:55:09;;;;;;;;;;;;;;;16.45;77.94;102756.81;5029794;28;19925;-46
2021/09/02 06:57:37;;;;;;;;;;;;;;;16.56;78.52;102754.34;5027429;28;20578;-46
2021/09/02 07:00:04;;;;;;;;;;;;;;;16.66;76.78;102751.97;5028464;28;20284;-45
2021/09/02 07:02:31;;;;;;;;;;;;;;;16.70;75.65;102762.34;5028296;28;19936;-47
2021/09/02 07:04:58;;;;;;;;;;;;;;;16.67;74.85;102759.00;5028917;28;19940;-48
2021/09/02 07:07:25;;;;;;;;;;;;;;;16.74;75.29;102747.03;5028073;28;19983;-46
2021/09/02 07:09:52;;;;;;;;;;;;;;;16.84;74.50;102742.03;5029777;28;19983;-50
2021/09/02 07:12:18;;;;;;;;;;;;;;;16.79;73.94;102749.44;5028014;28;19936;-50
2021/09/02 07:14:45;;;;;;;;;;;;;;;16.91;74.12;102756.69;5029648;28;19940;-49
2021/09/02 07:17:12;;;;;;;;;;;;;;;17.06;73.31;102747.75;5028491;28;19929;-47
2021/09/02 07:19:39;;;;;;;;;;;;;;;17.19;73.24;102752.28;5029515;28;19979;-50
2021/09/02 07:22:05;;;;;;;;;;;;;;;17.18;72.22;102753.25;5029159;28;20380;-50
2021/09/02 07:24:32;;;;;;;;;;;;;;;17.29;72.11;102753.41;5028125;28;20442;-50
2021/09/02 07:26:59;;;;;;;;;;;;;;;17.41;71.57;102754.47;5027907;28;20315;-45
2021/09/02 07:29:25;;;;;;;;;;;;;;;17.49;71.15;102754.81;5027484;28;19991;-48
2021/09/02 07:31:52;;;;;;;;;;;;;;;17.58;71.82;102761.31;5029523;28;19929;-45
2021/09/02 07:34:19;;;;;;;;;;;;;;;17.62;70.65;102752.19;5028641;28;19979;-48
2021/09/02 07:36:45;;;;;;;;;;;;;;;17.80;70.17;102763.44;5028532;28;19929;-46
2021/09/02 07:39:13;;;;;;;;;;;;;;;17.95;70.12;102769.59;5027572;28;19983;-53
2021/09/02 07:41:40;;;;;;;;;;;;;;;18.05;69.05;102769.81;5027782;28;20391;-53
2021/09/02 07:44:07;;;;;;;;;;;;;;;18.28;69.31;102770.94;5011127;28;19937;-56
2021/09/02 07:46:34;;;;;;;;;;;;;;;18.44;68.86;102776.09;5029006;28;20335;-53
2021/09/02 07:49:01;;;;;;;;;;;;;;;18.56;68.50;102777.06;5029435;28;19932;-55
2021/09/02 07:51:27;;;;;;;;;;;;;;;18.62;68.36;102771.28;5029321;28;20342;-48
2021/09/02 07:53:54;;;;;;;;;;;;;;;18.74;67.09;102772.25;5028025;28;20388;-56
2021/09/02 07:56:21;;;;;;;;;;;;;;;18.84;67.05;102775.13;5030199;28;19936;-56
2021/09/02 07:58:47;;;;;;;;;;;;;;;18.99;66.46;102774.09;5031651;28;19928;-55
2021/09/02 08:01:15;;;;;;;;;;;;;;;19.01;66.20;102774.00;5032772;28;20403;-55
2021/09/02 08:03:42;;;;;;;;;;;;;;;19.06;66.44;102769.16;5032314;28;19925;-56
2021/09/02 08:06:09;;;;;;;;;;;;;;;19.19;64.78;102780.66;5032402;28;20335;-50
2021/09/02 08:08:35;;;;;;;;;;;;;;;19.39;64.87;102781.91;5032614;28;19932;-47
2021/09/02 08:11:02;;;;;;;;;;;;;;;19.41;64.93;102785.34;5032839;28;19925;-47
2021/09/02 08:13:29;;;;;;;;;;;;;;;19.60;63.50;102786.66;5030898;28;19950;-47
2021/09/02 08:15:55;;;;;;;;;;;;;;;19.59;62.00;102784.94;5031217;28;19967;-45
2021/09/02 08:18:22;;;;;;;;;;;;;;;19.87;62.97;102775.78;5032637;28;20656;-46
2021/09/02 08:20:49;;;;;;;;;;;;;;;20.07;62.17;102782.28;5031963;28;19936;-46
2021/09/02 08:23:15;;;;;;;;;;;;;;;20.32;60.77;102777.75;5031930;28;19925;-47
2021/09/02 08:25:43;;;;;;;;;;;;;;;20.42;60.51;102775.22;5032196;28;19933;-45
2021/09/02 08:28:10;;;;;;;;;;;;;;;20.44;58.49;102776.81;5029406;28;19929;-45
2021/09/02 08:30:36;;;;;;;;;;;;;;;20.56;58.54;102774.16;5032699;28;20426;-50
2021/09/02 08:33:03;;;;;;;;;;;;;;;20.72;58.31;102772.03;5032343;28;20291;-47
2021/09/02 08:35:30;;;;;;;;;;;;;;;20.90;57.04;102776.88;5013686;28;19929;-50
2021/09/02 08:37:58;;;;;;;;;;;;;;;20.92;56.35;102769.63;5031308;28;19929;-49
2021/09/02 08:40:26;;;;;;;;;;;;;;;21.07;55.50;102781.75;5031820;28;19935;-49
2021/09/02 08:42:54;;;;;;;;;;;;;;;21.23;56.52;102776.03;5030315;28;19936;-47
2021/09/02 08:45:24;;;;;;;;;;;;;;;21.27;56.37;102774.81;5031712;28;20341;-49
2021/09/02 08:47:51;;;;;;;;;;;;;;;21.37;55.79;102769.56;5030863;28;20376;-46
2021/09/02 08:50:20;;;;;;;;;;;;;;;21.73;53.22;102766.69;5031559;28;19975;-46
2021/09/02 08:52:46;;;;;;;;;;;;;;;22.00;53.39;102762.69;5030430;28;19932;-49
2021/09/02 08:55:14;;;;;;;;;;;;;;;21.91;53.06;102767.84;5031633;28;20265;-50
2021/09/02 08:57:40;;;;;;;;;;;;;;;21.77;52.73;102765.47;5030324;28;19925;-46
2021/09/02 09:00:08;;;;;;;;;;;;;;;22.12;52.22;102773.22;5031501;28;19936;-53
2021/09/02 09:02:34;;;;;;;;;;;;;;;22.13;51.69;102774.09;5031935;28;20020;-54
2021/09/02 09:05:06;;;;;;;;;;;;;;;21.97;53.01;102777.19;5013449;28;19925;-54
2021/09/02 09:07:37;;;;;;;;;;;;;;;22.21;52.98;102776.09;5029991;28;19932;-54
2021/09/02 09:10:09;;;;;;;;;;;;;;;21.94;52.78;102778.31;5030772;28;19992;-54
2021/09/02 09:12:37;;;;;;;;;;;;;;;22.22;52.51;102778.69;5029973;28;20423;-54
2021/09/02 09:15:05;;;;;;;;;;;;;;;22.53;51.79;102769.88;5029903;28;19929;-48
2021/09/02 09:17:32;;;;;;;;;;;;;;;22.58;52.13;102770.31;5031514;28;20299;-54
2021/09/02 09:19:59;;;;;;;;;;;;;;;22.65;51.29;102771.47;5029888;28;19925;-54
2021/09/02 09:22:27;;;;;;;;;;;;;;;22.38;51.56;102764.81;5029517;28;19929;-54
2021/09/02 09:24:55;;;;;;;;;;;;;;;22.28;52.05;102767.41;5031006;28;19925;-54
2021/09/02 09:27:23;;;;;;;;;;;;;;;22.03;51.45;102768.66;5029302;28;20392;-53
2021/09/02 09:30:08;;;;;;;;;;;;;;;22.11;51.25;102768.00;5031170;28;19937;-54
2021/09/02 09:32:38;;;;;;;;;;;;;;;22.11;51.65;102768.00;5031302;28;20384;-55
2021/09/02 09:35:06;;;;;;;;;;;;;;;22.11;50.49;102768.00;5030712;28;19947;-53
2021/09/02 09:37:37;;;;;;;;;;;;;;;22.25;51.27;102756.97;5029640;28;20396;-51
2021/09/02 09:40:08;;;;;;;;;;;;;;;22.38;50.86;102759.47;5031157;28;19984;-49
2021/09/02 09:42:34;;;;;;;;;;;;;;;22.31;50.87;102760.13;5029081;28;19991;-49
2021/09/02 09:45:01;;;;;;;;;;;;;;;22.47;51.57;102756.97;5029304;28;20304;-47
2021/09/02 09:47:33;;;;;;;;;;;;;;;22.45;49.56;102757.97;5030697;28;19952;-48
2021/09/02 09:50:09;;;;;;;;;;;;;;;22.96;49.72;102755.38;5029343;28;19932;-48
2021/09/02 09:52:42;;;;;;;;;;;;;;;23.23;49.09;102752.13;5029627;28;19929;-47
2021/09/02 09:55:09;;;;;;;;;;;;;;;23.43;47.96;102752.13;5028939;28;20011;-46
2021/09/02 09:57:38;;;;;;;;;;;;;;;23.44;48.43;102751.16;5027589;28;19929;-47
2021/09/02 10:00:08;;;;;;;;;;;;;;;23.79;46.76;102747.94;5030309;28;19932;-49
2021/09/02 10:02:36;;;;;;;;;;;;;;;24.01;47.33;102751.34;5030773;28;19975;-44
2021/09/02 10:05:04;;;;;;;;;;;;;;;23.89;45.98;102747.94;5030312;28;19936;-50
2021/09/02 10:07:32;;;;;;;;;;;;;;;24.01;45.75;102751.34;5012633;28;19925;-48
2021/09/02 10:09:59;;;;;;;;;;;;;;;24.01;45.26;102748.66;5029580;28;20454;-50
2021/09/02 10:12:26;;;;;;;;;;;;;;;23.97;45.01;102744.56;5027081;28;20415;-50
2021/09/02 10:14:55;;;;;;;;;;;;;;;23.90;45.75;102743.41;5029347;28;20374;-50
2021/09/02 10:17:21;;;;;;;;;;;;;;;24.17;44.49;102740.00;5029657;28;19925;-50
2021/09/02 10:19:48;;;;;;;;;;;;;;;24.20;44.89;102733.47;5029726;28;19925;-50
2021/09/02 10:22:14;;;;;;;;;;;;;;;24.22;45.24;102735.03;5029652;28;20392;-48
2021/09/02 10:24:41;;;;;;;;;;;;;;;24.16;44.47;102737.44;5030308;28;20333;-49
2021/09/02 10:27:17;;;;;;;;;;;;;;;23.88;46.08;102734.63;5028144;28;19926;-49
2021/09/02 10:29:44;;;;;;;;;;;;;;;23.42;45.82;102723.59;5030193;28;19925;-48
2021/09/02 10:32:23;;;;;;;;;;;;;;;23.45;46.58;102720.63;5030351;28;20397;-45
2021/09/02 10:34:50;;;;;;;;;;;;;;;23.39;45.83;102723.88;5029817;28;19925;-50
2021/09/02 10:37:36;;;;;;;;;;;;;;;23.59;46.49;102730.97;5028493;28;19933;-47
2021/09/02 10:40:08;;;;;;;;;;;;;;;23.13;47.15;102724.41;5029283;28;20277;-48
2021/09/02 10:42:42;;;;;;;;;;;;;;;23.09;47.66;102731.00;5026508;28;20372;-49
2021/09/02 10:45:24;;;;;;;;;;;;;;;23.20;47.08;102727.38;5029604;28;20031;-45
2021/09/02 10:47:55;;;;;;;;;;;;;;;23.42;47.46;102726.28;5030012;28;19983;-48
2021/09/02 10:50:22;;;;;;;;;;;;;;;23.75;47.64;102716.97;5029539;28;19925;-46
2021/09/02 10:52:49;;;;;;;;;;;;;;;24.10;47.00;102720.91;5028385;28;20017;-44
2021/09/02 10:55:29;;;;;;;;;;;;;;;24.25;45.51;102712.41;5029582;28;19948;-43
2021/09/02 10:57:57;;;;;;;;;;;;;;;24.62;45.14;102716.97;5028170;28;19936;-45
2021/09/02 11:00:32;;;;;;;;;;;;;;;24.93;45.40;102719.38;5028108;28;19925;-53
2021/09/02 11:03:12;;;;;;;;;;;;;;;25.18;44.38;102711.56;5028276;28;20339;-56
2021/09/02 11:05:42;;;;;;;;;;;;;;;25.39;42.53;102709.47;5028980;28;19971;-55
2021/09/02 11:08:09;;;;;;;;;;;;;;;25.87;41.70;102706.53;5028702;28;19929;-56
2021/09/02 11:10:36;;;;;;;;;;;;;;;25.41;42.58;102715.53;5029615;28;19929;-55
2021/09/02 11:13:04;;;;;;;;;;;;;;;25.23;44.03;102704.72;5027944;28;19936;-54
2021/09/02 11:15:31;;;;;;;;;;;;;;;25.38;43.56;102706.94;5028029;28;20412;-56
2021/09/02 11:17:59;;;;;;;;;;;;;;;25.45;42.66;102708.84;5030000;28;20311;-53
2021/09/02 11:20:40;;;;;;;;;;;;;;;25.30;41.37;102707.66;5029224;28;19932;-54
2021/09/02 11:23:08;;;;;;;;;;;;;;;24.98;41.82;102706.31;5027547;28;19933;-53
2021/09/02 11:25:39;;;;;;;;;;;;;;;24.94;43.23;102705.78;5029148;28;20019;-53
2021/09/02 11:28:05;;;;;;;;;;;;;;;24.94;42.89;102707.63;5027795;28;19951;-55
2021/09/02 11:30:33;;;;;;;;;;;;;;;24.67;43.91;102706.63;5030992;28;20368;-54
2021/09/02 11:33:00;;;;;;;;;;;;;;;24.49;43.71;102703.84;5033398;28;19979;-53
2021/09/02 11:35:27;;;;;;;;;;;;;;;24.75;44.28;102701.34;5031206;28;19933;-52
2021/09/02 11:37:54;;;;;;;;;;;;;;;24.82;43.70;102698.91;5031589;28;19929;-52
2021/09/02 11:40:24;;;;;;;;;;;;;;;24.91;45.00;102694.44;5031501;28;19925;-53
2021/09/02 11:42:51;;;;;;;;;;;;;;;24.75;44.25;102690.59;5030917;28;19925;-55
2021/09/02 11:45:18;;;;;;;;;;;;;;;24.77;43.90;102690.44;5032424;28;19929;-54
2021/09/02 11:47:46;;;;;;;;;;;;;;;24.75;44.29;102684.38;5033196;28;20441;-54
2021/09/02 11:50:14;;;;;;;;;;;;;;;24.71;44.28;102697.25;5032190;28;19925;-52
2021/09/02 11:52:45;;;;;;;;;;;;;;;24.27;44.95;102688.94;5032656;28;20419;-46
2021/09/02 11:55:12;;;;;;;;;;;;;;;24.71;44.96;102683.81;5015602;28;19933;-46
2021/09/02 11:57:39;;;;;;;;;;;;;;;25.13;45.11;102677.88;5030108;28;19925;-44
2021/09/02 12:00:06;;;;;;;;;;;;;;;25.20;43.86;102671.91;5032437;28;19932;-46
2021/09/02 12:02:33;;;;;;;;;;;;;;;25.80;43.51;102669.41;5031424;28;19969;-47
2021/09/02 12:05:00;;;;;;;;;;;;;;;26.36;41.28;102671.81;5032349;28;19932;-45
2021/09/02 12:07:27;;;;;;;;;;;;;;;25.90;40.75;102668.47;5030961;28;19929;-48
2021/09/02 12:09:53;;;;;;;;;;;;;;;25.69;42.70;102672.38;5031111;28;19939;-45
2021/09/02 12:12:27;;;;;;;;;;;;;;;25.69;42.48;102672.38;5030926;28;19932;-46
2021/09/02 12:14:54;;;;;;;;;;;;;;;25.96;42.46;102670.56;5031057;28;19929;-49
2021/09/02 12:17:22;;;;;;;;;;;;;;;26.04;42.15;102669.78;5032415;28;19925;-46
2021/09/02 12:19:51;;;;;;;;;;;;;;;25.72;42.71;102674.75;5030587;28;19932;-48
2021/09/02 12:22:28;;;;;;;;;;;;;;;25.31;42.89;102669.81;5031909;28;19936;-47
2021/09/02 12:25:05;;;;;;;;;;;;;;;25.03;43.77;102657.41;5032524;28;19925;-49
2021/09/02 12:27:41;;;;;;;;;;;;;;;25.64;43.03;102664.75;5030622;28;20016;-47
2021/09/02 12:30:08;;;;;;;;;;;;;;;25.56;42.74;102658.44;5014153;28;19968;-45
2021/09/02 12:32:34;;;;;;;;;;;;;;;25.76;42.96;102656.44;5032674;28;19936;-45
2021/09/02 12:35:14;;;;;;;;;;;;;;;25.65;42.40;102657.53;5032111;28;19925;-46
2021/09/02 12:37:41;;;;;;;;;;;;;;;25.76;43.04;102651.03;5032097;28;19925;-45